Impacts METAR Board
IDs:

KT35 - Cameron Muni, TX, US

Updated at: 0100 UTC 06 Dec 2019
Potential Impact None Slight Moderate High
Time 05/13Z 05/14Z 05/15Z 05/16Z 05/17Z 05/18Z 05/19Z 05/20Z 05/21Z 05/22Z 05/23Z 06/00Z 06/01Z
Temp53 54 57 59 63 64 67 70 72 71 71 67 67
Dewpt51 53 56 58 60 60 61 60 60 59 60 59 60
Altim30.04 30.04 30.05 30.06 30.05 30.03 29.99 29.95 29.93 29.92 29.93 29.93 29.94
VIS2.5 0.25 0.25 1.75 10 10 10 10 10 10 10 10 10
CIG-- 3 3 3 5 7 13 22 24 -- -- -- --
CoverCLROVCOVCOVCOVCOVCOVCBKNBKNCLRCLRCLRCLR
FltCatIFRLIFRLIFRLIFRIFRIFRMVFRMVFRMVFRVFRVFRVFRVFR
WXBRFGFGBR------------------
WDir160170170160180190190200180190180180170
WSpd4 6 6 3 9 12 12 15 13 10 8 6 4
WGst-- -- -- -- -- -- -- 26 20 21 14 -- --
Raw hourly METARs
KT35 051255Z AUTO 16004KT 2 1/2SM BR CLR 12/10 A3004 RMK AO2 T01170104
KT35 051355Z AUTO 17006KT M1/4SM FG OVC003 12/12 A3004 RMK AO2 T01230117
KT35 051455Z AUTO 17006KT M1/4SM FG OVC003 14/13 A3005 RMK AO2 T01370134
KT35 051555Z AUTO 16003KT 1 3/4SM BR OVC003 15/15 A3006 RMK AO2 T01490145
KT35 051655Z AUTO 18009KT 10SM OVC005 17/16 A3005 RMK AO2 T01740156
KT35 051755Z AUTO 19012KT 10SM OVC007 18/16 A3003 RMK AO2 T01780155 10182 20105
KT35 051855Z AUTO 19012KT 10SM BKN013 OVC020 20/16 A2999 RMK AO2 T01950162
KT35 051955Z AUTO 20015G26KT 10SM BKN022 21/16 A2995 RMK AO2 T02130157
KT35 052055Z AUTO 18013G20KT 10SM BKN024 22/16 A2993 RMK AO2 T02220157
KT35 052155Z AUTO 19010G21KT 10SM CLR 22/15 A2992 RMK AO2 T02160152
KT35 052255Z AUTO 18008G14KT 10SM CLR 22/16 A2993 RMK AO2 T02150155
KT35 052355Z AUTO 18006KT 10SM CLR 20/15 A2993 RMK AO2 T01970152 10226 20179
KT35 060055Z AUTO 17004KT 10SM CLR 19/16 A2994 RMK AO2 T01940155